Portada
METAR-TAF:

METAR-TAF

Aeropuertos :

Seyresse

Dax, Francia

latitud: 43-41N, longitud: 001-04W, altitud: 32 m

Observación

El informe se hizo hace 39 minutos, a las 15:00 UTC
Viento 10 kt del oeste-noroeste, variando entre oeste y norte-noroeste
Temperatura 22°C
Humedad 50%
Presión 1022 hPa
Visibilidad 10 km o más

METAR: LFBY 171500Z AUTO 30010KT 260V330 9999 // ////// 22/11 Q1022

Hora: 17:39 (15:39 UTC)


TAF: falta

Observaciones y pronósticos meteorológicos de más de 4000 aeropuertos (mensajes METAR y TAF).

Los puntos amarillos y rojos representan las estaciones disponibles.

Ponga el ratón en el punto deseado para ver el nombre de la estación.

Haga clic para ver las observaciones y los pronósticos meteorológicos.

Para cambiar el mapa : haga clic en los botones verdes con una cruz de color negro para hacer un zoom, en el botón verde con un guión para alejar o en las flechas verdes para mapas adyacentes.


METAR-TAF: